Pagrindinis puslapis
METAR-TAF:

METAR-TAF

Oro uostai :

Šeleftėjas, Švedija

platuma: 64-38N, ilguma: 021-05E, Aukštis: 49 m

Dabartinis oras

Ataskaita buvo paskelbta 33 minutes, ne 06:20 UTC
Vėjas 10 kt iš Vakarų
Temperatūra 0°C
Drėgmė 64%
Slėgis 1015 hPa
Matomumas 10 km arba daugiau

METAR: ESNS 100620Z AUTO 27010KT 9999 NCD 00/M06 Q1015

Laikas: 08:53 (06:53 UTC)

Prognozė

Ataskaita buvo paskelbta 1 valandą ir 23 minutes, ne 05:30 UTC
Prognozė galioja nuo 10 metu 06 UTC su 10 metu 09 UTC
Vėjas 8 kt iš Vakarų
Matomumas 10 km arba daugiau
nėra debesų žemiau 1500 m ir nėra kamuolinių lietaus debesų

TAF: ESNS 100530Z 1006/1009 27008KT CAVOK

Orai ataskaitas ir orų prognozės (METAR, TAF).

turimą stotys yra geltonos ir raudonos taškus žemėlapyje.

Perkelti pele per norėdami pamatyti stoties vardą.

Tada spustelėkite, norėdami matyti oro stebėjimo ir prognozės.

Norėdami pakeisti žemėlapį: spustelėkite ant žalios mygtukų su juodo kryžiaus žemyn,; žalią mygtuką su brūkšneliu, jei norite nutolinti; arba žalių rodyklių gretimoms žemėlapius.


METAR-TAF: